Time;durP1;ratioP1;P1;durP2;ratioP2;P2;SDS_P1;SDS_P2;PMS_P1;PMS_P2;Temp;Humidity;BMP_temperature;BMP_pressure;BME280_temperature;BME280_humidity;BME280_pressure;Samples;Min_cycle;Max_cycle;Signal;HPM_P1;HPM_P2
2021/01/25 00:01:59;;;;;;;13.57;10.10;;;22.70;44.00;;;;;;5086816;28;20100;-60
2021/01/25 00:04:26;;;;;;;14.30;9.35;;;22.70;44.10;;;;;;5088899;28;20055;-60
2021/01/25 00:06:52;;;;;;;16.27;11.10;;;22.70;44.10;;;;;;5073165;28;20055;-60
2021/01/25 00:09:18;;;;;;;13.25;9.68;;;22.80;44.10;;;;;;5108769;28;20051;-60
2021/01/25 00:11:44;;;;;;;12.20;9.80;;;22.70;44.10;;;;;;5110767;27;20019;-59
2021/01/25 00:14:10;;;;;;;14.68;9.95;;;22.70;44.10;;;;;;5112047;28;20028;-59
2021/01/25 00:16:36;;;;;;;11.82;9.50;;;22.70;44.10;;;;;;5111784;28;20031;-59
2021/01/25 00:19:02;;;;;;;11.40;9.18;;;22.70;44.10;;;;;;5094383;28;20118;-60
2021/01/25 00:21:28;;;;;;;13.15;8.10;;;22.70;44.10;;;;;;5112298;28;20023;-60
2021/01/25 00:23:54;;;;;;;10.63;8.30;;;22.70;44.10;;;;;;5112128;28;20489;-58
2021/01/25 00:26:20;;;;;;;11.10;8.82;;;22.70;44.10;;;;;;5094586;28;20035;-59
2021/01/25 00:28:46;;;;;;;11.73;8.18;;;22.70;44.10;;;;;;5112967;28;20023;-60
2021/01/25 00:31:12;;;;;;;8.93;7.18;;;22.70;44.10;;;;;;5112045;28;20027;-59
2021/01/25 00:33:38;;;;;;;11.88;8.38;;;22.70;44.10;;;;;;5112462;28;20032;-59
2021/01/25 00:36:04;;;;;;;9.90;7.80;;;22.70;44.10;;;;;;5104849;28;20044;-59
2021/01/25 00:38:30;;;;;;;8.65;6.85;;;22.70;44.10;;;;;;5090608;28;20031;-59
2021/01/25 00:40:56;;;;;;;11.93;7.13;;;22.70;44.10;;;;;;5092079;28;20020;-59
2021/01/25 00:43:22;;;;;;;11.50;7.57;;;22.70;44.10;;;;;;5056611;28;20031;-60
2021/01/25 00:45:48;;;;;;;10.05;7.38;;;22.70;44.10;;;;;;5091523;28;20043;-59
2021/01/25 00:48:14;;;;;;;9.02;6.85;;;22.70;44.10;;;;;;5092162;28;20087;-60
2021/01/25 00:50:40;;;;;;;9.00;6.63;;;22.70;44.10;;;;;;5092108;28;20031;-60
2021/01/25 00:53:08;;;;;;;9.88;6.88;;;22.70;44.10;;;;;;5072379;28;20028;-60
2021/01/25 00:55:34;;;;;;;12.48;6.35;;;22.70;44.20;;;;;;5073758;28;20062;-59
2021/01/25 00:58:01;;;;;;;9.65;6.60;;;22.70;44.20;;;;;;5090835;28;20023;-60
2021/01/25 01:00:27;;;;;;;9.43;7.03;;;22.70;44.30;;;;;;5073938;28;20542;-60
2021/01/25 01:02:53;;;;;;;11.00;6.70;;;22.60;44.20;;;;;;5074049;28;20108;-59
2021/01/25 01:05:20;;;;;;;12.57;7.45;;;22.70;44.80;;;;;;5091756;28;20131;-60
2021/01/25 01:07:46;;;;;;;10.48;6.40;;;22.60;44.20;;;;;;5088140;28;20028;-60
2021/01/25 01:10:13;;;;;;;11.73;5.57;;;22.60;44.30;;;;;;5090712;28;20020;-60
2021/01/25 01:12:39;;;;;;;12.05;6.75;;;22.60;44.20;;;;;;5091708;28;20107;-59
2021/01/25 01:15:10;;;;;;;7.43;6.28;;;22.60;44.30;;;;;;5091745;28;20032;-60
2021/01/25 01:17:37;;;;;;;8.30;5.28;;;22.60;44.30;;;;;;5091618;28;20085;-60
2021/01/25 01:20:05;;;;;;;11.70;6.55;;;22.60;44.30;;;;;;5090980;28;20108;-60
2021/01/25 01:22:31;;;;;;;11.40;5.78;;;22.60;44.30;;;;;;5073213;28;20051;-60
2021/01/25 01:24:57;;;;;;;10.35;6.80;;;22.60;44.30;;;;;;5090201;28;20518;-59
2021/01/25 01:27:23;;;;;;;8.68;5.55;;;22.60;44.30;;;;;;5074986;28;20152;-60
2021/01/25 01:29:49;;;;;;;8.82;5.68;;;22.60;44.30;;;;;;5056963;28;20135;-60
2021/01/25 01:32:15;;;;;;;9.73;5.97;;;22.60;44.40;;;;;;5073693;28;20115;-60
2021/01/25 01:34:41;;;;;;;7.13;5.05;;;22.60;44.40;;;;;;5095388;28;20038;-60
2021/01/25 01:37:08;;;;;;;11.40;5.72;;;22.60;44.40;;;;;;5111030;28;20048;-60
2021/01/25 01:39:34;;;;;;;10.40;5.68;;;22.60;44.40;;;;;;5115574;28;20046;-60
2021/01/25 01:42:00;;;;;;;8.98;5.40;;;22.60;44.40;;;;;;5097618;28;20027;-60
2021/01/25 01:44:26;;;;;;;12.65;5.85;;;22.60;44.40;;;;;;5115935;28;20031;-60
2021/01/25 01:46:53;;;;;;;8.20;5.07;;;22.60;44.50;;;;;;5097399;28;20024;-60
2021/01/25 01:49:19;;;;;;;9.82;6.30;;;22.60;44.50;;;;;;5115830;28;20112;-60
2021/01/25 01:51:46;;;;;;;13.25;6.30;;;22.50;44.50;;;;;;5080031;28;20023;-59
2021/01/25 01:54:14;;;;;;;7.55;5.15;;;22.60;44.60;;;;;;5115510;28;20055;-60
2021/01/25 01:56:40;;;;;;;10.93;5.97;;;22.50;44.60;;;;;;5097184;28;20058;-60
2021/01/25 01:59:06;;;;;;;9.18;5.53;;;22.50;44.60;;;;;;5097138;28;20027;-60
2021/01/25 02:01:32;;;;;;;7.85;5.43;;;22.50;45.20;;;;;;5097080;28;20488;-60
2021/01/25 02:03:59;;;;;;;7.85;5.80;;;22.50;44.60;;;;;;5115233;28;20473;-60
2021/01/25 02:06:28;;;;;;;9.40;5.93;;;22.50;44.70;;;;;;5113927;28;20038;-60
2021/01/25 02:08:58;;;;;;;8.05;5.60;;;22.50;44.70;;;;;;5079994;28;20051;-60
2021/01/25 02:11:24;;;;;;;10.35;6.13;;;22.50;44.70;;;;;;5114555;28;20019;-60
2021/01/25 02:13:51;;;;;;;10.20;5.70;;;22.50;44.80;;;;;;5096095;28;20358;-59
2021/01/25 02:16:17;;;;;;;7.35;5.38;;;22.50;44.80;;;;;;5103381;28;20030;-59
2021/01/25 02:18:43;;;;;;;9.65;5.15;;;22.50;44.80;;;;;;5115306;28;20027;-59
2021/01/25 02:21:14;;;;;;;7.15;5.18;;;22.50;44.80;;;;;;5097056;28;20385;-59
2021/01/25 02:23:57;;;;;;;9.23;5.80;;;22.50;44.90;;;;;;5114571;28;20025;-59
2021/01/25 02:26:50;;;;;;;9.27;5.70;;;22.50;45.00;;;;;;5114939;28;20535;-59
2021/01/25 02:29:17;;;;;;;7.97;6.22;;;22.50;45.00;;;;;;5114037;28;20030;-59
2021/01/25 02:31:45;;;;;;;6.97;5.35;;;22.50;45.00;;;;;;5131626;27;20026;-59
2021/01/25 02:34:12;;;;;;;9.10;5.65;;;22.50;45.00;;;;;;5115372;27;20188;-59
2021/01/25 02:36:38;;;;;;;9.48;6.18;;;22.50;45.10;;;;;;5114909;28;20047;-59
2021/01/25 02:39:05;;;;;;;8.00;5.90;;;22.50;45.10;;;;;;5114002;28;20024;-60
2021/01/25 02:41:33;;;;;;;8.68;5.63;;;22.50;45.10;;;;;;5114268;28;20107;-60
2021/01/25 02:44:00;;;;;;;7.75;6.28;;;22.40;45.10;;;;;;5096208;28;20215;-60
2021/01/25 02:46:28;;;;;;;9.00;5.95;;;22.40;45.20;;;;;;5114088;28;20028;-60
2021/01/25 02:48:54;;;;;;;7.75;5.13;;;22.40;45.20;;;;;;5114827;28;20024;-60
2021/01/25 02:51:22;;;;;;;8.27;5.05;;;22.40;45.20;;;;;;5113885;28;20038;-60
2021/01/25 02:53:49;;;;;;;8.32;5.57;;;22.40;45.20;;;;;;5113987;28;20107;-60
2021/01/25 02:56:16;;;;;;;9.90;5.50;;;22.40;45.20;;;;;;5114284;28;20028;-60
2021/01/25 02:58:44;;;;;;;9.75;5.50;;;22.40;45.20;;;;;;5096172;28;20027;-60
2021/01/25 03:01:11;;;;;;;8.05;5.32;;;22.40;45.30;;;;;;5113733;28;20022;-60
2021/01/25 03:03:38;;;;;;;9.52;5.28;;;22.40;45.30;;;;;;5096215;28;20030;-60
2021/01/25 03:06:04;;;;;;;7.28;4.78;;;22.40;45.30;;;;;;5096201;28;20077;-60
2021/01/25 03:08:30;;;;;;;7.40;4.75;;;22.40;45.30;;;;;;5114521;28;20103;-60
2021/01/25 03:10:56;;;;;;;10.02;5.00;;;22.40;45.30;;;;;;5114213;28;20116;-60
2021/01/25 03:13:27;;;;;;;7.25;5.30;;;22.40;45.30;;;;;;5114022;28;20099;-60
2021/01/25 03:15:57;;;;;;;;;;;22.30;45.30;;;;;;5096440;28;20027;-60
2021/01/25 03:18:26;;;;;;;7.57;4.78;;;22.30;45.30;;;;;;5113471;28;20382;-60
2021/01/25 03:20:54;;;;;;;10.52;4.93;;;22.40;45.20;;;;;;5113262;28;20020;-60
2021/01/25 03:23:20;;;;;;;8.40;5.38;;;22.40;45.20;;;;;;5113835;28;20030;-60
2021/01/25 03:25:47;;;;;;;6.95;5.35;;;22.40;45.30;;;;;;5113541;28;20028;-60
2021/01/25 03:28:13;;;;;;;9.57;5.85;;;22.40;45.40;;;;;;5096060;28;20027;-60
2021/01/25 03:30:39;;;;;;;7.07;5.25;;;22.30;45.40;;;;;;5113407;28;20099;-60
2021/01/25 03:33:06;;;;;;;9.65;5.25;;;22.30;45.40;;;;;;5113951;28;20040;-60
2021/01/25 03:35:33;;;;;;;9.15;4.90;;;22.30;45.50;;;;;;5113286;28;20030;-60
2021/01/25 03:37:59;;;;;;;7.75;4.88;;;22.30;45.50;;;;;;5113981;28;20096;-60
2021/01/25 03:40:25;;;;;;;8.52;4.93;;;22.30;45.50;;;;;;5113410;28;20047;-59
2021/01/25 03:42:51;;;;;;;4.75;4.10;;;22.30;45.50;;;;;;5113312;28;20024;-59
2021/01/25 03:45:17;;;;;;;7.43;4.60;;;22.30;45.50;;;;;;5113548;28;20044;-60
2021/01/25 03:47:43;;;;;;;8.00;4.40;;;22.30;45.50;;;;;;5112953;28;20031;-59
2021/01/25 03:50:09;;;;;;;9.43;4.40;;;22.30;45.50;;;;;;5077871;28;20475;-60
2021/01/25 03:52:35;;;;;;;6.80;4.38;;;22.30;45.60;;;;;;5113083;28;20031;-60
2021/01/25 03:55:01;;;;;;;7.47;4.70;;;22.30;45.60;;;;;;5112148;28;20358;-60
2021/01/25 03:57:27;;;;;;;6.78;4.63;;;22.30;45.60;;;;;;5112909;28;20046;-59
2021/01/25 03:59:53;;;;;;;6.82;4.30;;;22.30;45.60;;;;;;5112264;28;20430;-60
2021/01/25 04:02:19;;;;;;;6.00;4.75;;;22.30;45.60;;;;;;5112804;28;20050;-60
2021/01/25 04:04:45;;;;;;;9.00;4.70;;;22.30;45.60;;;;;;5112081;28;20059;-60
2021/01/25 04:07:11;;;;;;;6.35;4.43;;;22.30;45.70;;;;;;5113188;28;20052;-60
2021/01/25 04:09:38;;;;;;;10.20;5.03;;;22.30;45.70;;;;;;5112777;28;20036;-60
2021/01/25 04:12:05;;;;;;;9.77;4.75;;;22.30;45.70;;;;;;5095051;28;20066;-59
2021/01/25 04:14:31;;;;;;;7.68;3.67;;;22.30;45.70;;;;;;5112857;28;20034;-60
2021/01/25 04:16:57;;;;;;;5.90;3.58;;;22.30;45.70;;;;;;5112832;28;20031;-59
2021/01/25 04:19:23;;;;;;;9.02;4.47;;;22.30;45.70;;;;;;5093865;28;20032;-59
2021/01/25 04:21:49;;;;;;;7.47;4.07;;;22.30;45.70;;;;;;5112965;28;20473;-60
2021/01/25 04:24:15;;;;;;;6.28;4.00;;;22.20;45.70;;;;;;5112540;28;20031;-60
2021/01/25 04:26:41;;;;;;;8.52;4.65;;;22.30;45.70;;;;;;5112644;28;20028;-59
2021/01/25 04:29:11;;;;;;;6.38;3.75;;;22.30;45.70;;;;;;5112252;28;20031;-60
2021/01/25 04:31:37;;;;;;;7.47;4.00;;;22.20;46.30;;;;;;5112262;28;20024;-60
2021/01/25 04:34:04;;;;;;;5.93;3.50;;;22.30;45.70;;;;;;5112606;28;20020;-60
2021/01/25 04:36:30;;;;;;;5.93;4.20;;;22.30;45.70;;;;;;5112056;28;20489;-60
2021/01/25 04:38:57;;;;;;;9.25;4.80;;;22.20;45.60;;;;;;5112259;28;20052;-60
2021/01/25 04:41:24;;;;;;;6.40;4.13;;;22.20;45.70;;;;;;5112150;28;20161;-60
2021/01/25 04:43:53;;;;;;;5.80;3.88;;;22.20;45.70;;;;;;5111990;28;20050;-60
2021/01/25 04:46:20;;;;;;;7.07;3.55;;;22.20;45.70;;;;;;5111833;28;20032;-58
2021/01/25 04:48:47;;;;;;;5.43;3.88;;;22.20;45.70;;;;;;5112762;28;20027;-59
2021/01/25 04:51:13;;;;;;;7.03;4.15;;;22.20;45.70;;;;;;5112039;28;20163;-59
2021/01/25 04:53:41;;;;;;;5.30;3.28;;;22.20;45.70;;;;;;5111854;28;20051;-59
2021/01/25 04:56:08;;;;;;;5.53;3.55;;;22.20;45.80;;;;;;5112092;28;20022;-59
2021/01/25 04:58:35;;;;;;;7.28;3.63;;;22.20;45.70;;;;;;5112030;28;20110;-58
2021/01/25 05:01:02;;;;;;;4.80;3.40;;;22.20;45.70;;;;;;5111646;28;20023;-58
2021/01/25 05:03:29;;;;;;;6.82;3.78;;;22.20;45.70;;;;;;5111771;28;20097;-59
2021/01/25 05:05:56;;;;;;;6.03;3.63;;;22.20;45.80;;;;;;5111471;28;20562;-59
2021/01/25 05:08:22;;;;;;;7.25;3.90;;;22.20;45.80;;;;;;5112437;28;20023;-60
2021/01/25 05:10:48;;;;;;;7.35;4.07;;;22.20;46.40;;;;;;5076656;28;20081;-62
2021/01/25 05:13:24;;;;;;;8.50;3.97;;;22.20;45.80;;;;;;5112630;28;20028;-63
2021/01/25 05:15:52;;;;;;;6.32;4.10;;;22.10;45.80;;;;;;5111647;28;20035;-62
2021/01/25 05:18:24;;;;;;;7.75;3.83;;;22.10;45.70;;;;;;5111945;28;20113;-62
2021/01/25 05:20:56;;;;;;;6.05;3.72;;;22.10;45.80;;;;;;5112114;28;20031;-62
2021/01/25 05:23:23;;;;;;;4.90;3.10;;;22.10;45.80;;;;;;5112451;28;20054;-62
2021/01/25 05:25:49;;;;;;;6.80;3.40;;;22.10;45.80;;;;;;5111281;28;20020;-63
2021/01/25 05:28:17;;;;;;;5.75;3.42;;;22.10;45.70;;;;;;5111001;28;20355;-58
2021/01/25 05:30:45;;;;;;;7.07;3.88;;;22.10;45.70;;;;;;5111637;28;20028;-62
2021/01/25 05:33:11;;;;;;;6.95;3.67;;;22.10;45.70;;;;;;5111597;28;20023;-63
2021/01/25 05:35:37;;;;;;;8.27;3.97;;;22.10;45.80;;;;;;5093320;28;20370;-62
2021/01/25 05:38:09;;;;;;;6.55;3.60;;;22.10;45.70;;;;;;5112106;28;20098;-62
2021/01/25 05:40:39;;;;;;;5.93;3.60;;;22.10;45.80;;;;;;5111928;28;20027;-63
2021/01/25 05:43:16;;;;;;;5.78;3.10;;;22.10;45.80;;;;;;5111511;28;20023;-63
2021/01/25 05:45:42;;;;;;;5.63;3.60;;;22.10;45.80;;;;;;5111484;28;20035;-63
2021/01/25 05:48:13;;;;;;;6.25;3.65;;;22.10;45.80;;;;;;5112477;28;20436;-63
2021/01/25 05:50:43;;;;;;;7.35;3.08;;;22.10;45.80;;;;;;5111786;28;20027;-63
2021/01/25 05:53:13;;;;;;;4.90;3.85;;;22.00;45.70;;;;;;5111641;28;20107;-62
2021/01/25 05:55:40;;;;;;;6.07;3.60;;;22.10;45.80;;;;;;5111379;28;20055;-62
2021/01/25 05:58:08;;;;;;;7.53;2.95;;;22.00;45.80;;;;;;5111551;28;20275;-62
2021/01/25 06:00:34;;;;;;;5.05;2.88;;;22.10;45.80;;;;;;5110557;28;20012;-62
2021/01/25 06:03:02;;;;;;;5.60;3.50;;;22.00;45.80;;;;;;5111232;28;20028;-62
2021/01/25 06:05:31;;;;;;;7.32;3.15;;;22.00;45.90;;;;;;5110630;28;20085;-63
2021/01/25 06:08:07;;;;;;;6.70;3.58;;;22.00;46.50;;;;;;5111414;28;20027;-63
2021/01/25 06:10:53;;;;;;;6.95;3.10;;;22.00;45.90;;;;;;5093188;28;20031;-62
2021/01/25 06:13:24;;;;;;;5.40;2.90;;;22.00;45.90;;;;;;5112048;28;20031;-63
2021/01/25 06:15:52;;;;;;;5.43;2.90;;;22.00;45.90;;;;;;5110618;28;20106;-62
2021/01/25 06:18:19;;;;;;;6.85;3.05;;;22.00;45.90;;;;;;5111218;28;20027;-59
2021/01/25 06:20:48;;;;;;;9.32;3.60;;;22.00;45.80;;;;;;5114892;28;20032;-62
2021/01/25 06:23:14;;;;;;;6.95;3.85;;;21.90;45.80;;;;;;5113667;28;20115;-63
2021/01/25 06:25:41;;;;;;;10.93;4.03;;;22.00;45.90;;;;;;5113887;28;20035;-60
2021/01/25 06:28:13;;;;;;;6.72;4.28;;;21.90;45.80;;;;;;5116267;28;20047;-58
2021/01/25 06:30:42;;;;;;;9.77;5.13;;;21.80;45.70;;;;;;5091109;28;20496;-58
2021/01/25 06:33:12;;;;;;;10.30;5.88;;;21.90;45.80;;;;;;5113769;28;20027;-57
2021/01/25 06:35:38;;;;;;;11.27;7.77;;;21.90;45.80;;;;;;5114614;28;20028;-57
2021/01/25 06:38:12;;;;;;;13.25;8.55;;;21.90;45.90;;;;;;5112389;28;20027;-57
2021/01/25 06:40:43;;;;;;;13.75;9.77;;;21.90;45.90;;;;;;5099833;28;20170;-57
2021/01/25 06:43:15;;;;;;;14.30;10.50;;;21.80;46.00;;;;;;5115042;28;20039;-57
2021/01/25 06:45:48;;;;;;;13.30;10.85;;;21.80;46.00;;;;;;5108122;28;20044;-57
2021/01/25 06:48:17;;;;;;;13.23;8.88;;;21.90;46.10;;;;;;5107317;28;20023;-56
2021/01/25 06:50:46;;;;;;;14.55;9.50;;;21.80;46.10;;;;;;5115037;28;20020;-56
2021/01/25 06:53:13;;;;;;;13.68;8.65;;;21.80;46.10;;;;;;5131069;27;20088;-58
2021/01/25 06:55:43;;;;;;;14.10;10.15;;;21.80;46.10;;;;;;5117022;27;20070;-57
2021/01/25 06:58:14;;;;;;;14.35;9.35;;;21.80;46.30;;;;;;5115519;27;20024;-57
2021/01/25 07:00:40;;;;;;;;;;;21.80;46.30;;;;;;5113522;28;20063;-53
2021/01/25 07:03:08;;;;;;;11.38;9.57;;;21.80;46.20;;;;;;5114677;27;20414;-53
2021/01/25 07:05:37;;;;;;;14.77;9.90;;;21.80;46.10;;;;;;5109451;27;20067;-54
2021/01/25 07:08:23;;;;;;;16.35;11.55;;;21.80;46.20;;;;;;5123486;27;20112;-54
2021/01/25 07:10:53;;;;;;;16.50;11.63;;;21.80;46.40;;;;;;5135824;27;20031;-53
2021/01/25 07:13:20;;;;;;;11.38;9.65;;;21.80;46.40;;;;;;5136241;27;20019;-53
2021/01/25 07:15:47;;;;;;;11.95;9.82;;;21.80;46.40;;;;;;5101698;28;20484;-56
2021/01/25 07:18:13;;;;;;;13.07;10.13;;;21.80;46.50;;;;;;5114007;28;20030;-57
2021/01/25 07:20:40;;;;;;;14.02;9.70;;;21.80;46.50;;;;;;5103132;28;20540;-57
2021/01/25 07:23:08;;;;;;;16.27;10.32;;;21.80;46.50;;;;;;5111040;28;20042;-57
2021/01/25 07:25:34;;;;;;;13.88;9.40;;;21.80;46.60;;;;;;5114517;28;20115;-55
2021/01/25 07:28:04;;;;;;;12.02;9.00;;;21.80;46.60;;;;;;5114645;28;20103;-60
2021/01/25 07:30:33;;;;;;;12.05;9.27;;;21.80;46.70;;;;;;5113943;28;20373;-57
2021/01/25 07:33:05;;;;;;;10.75;8.90;;;21.80;46.70;;;;;;5115274;28;20405;-56
2021/01/25 07:35:32;;;;;;;13.65;9.70;;;21.80;46.70;;;;;;5114472;28;20059;-57
2021/01/25 07:37:58;;;;;;;590.63;525.70;;;21.80;46.70;;;;;;5115140;28;20032;-58
2021/01/25 07:40:24;;;;;;;194.10;146.73;;;21.90;46.70;;;;;;5114666;28;20031;-57
2021/01/25 07:42:53;;;;;;;292.27;256.30;;;21.90;46.70;;;;;;5115096;28;20110;-56
2021/01/25 07:45:22;;;;;;;117.57;96.18;;;21.80;46.80;;;;;;5114773;28;20032;-54
2021/01/25 07:47:48;;;;;;;79.32;66.00;;;21.80;46.60;;;;;;5114100;28;20041;-54
2021/01/25 07:50:17;;;;;;;69.93;53.67;;;21.80;46.50;;;;;;5115162;28;20032;-53
2021/01/25 07:52:43;;;;;;;62.90;50.25;;;21.70;46.50;;;;;;5115117;28;20077;-53
2021/01/25 07:55:13;;;;;;;70.68;59.72;;;21.70;46.50;;;;;;5114146;28;20024;-54
2021/01/25 07:57:44;;;;;;;62.45;47.55;;;21.60;46.80;;;;;;5114526;28;20047;-53
2021/01/25 08:00:18;;;;;;;41.05;31.05;;;21.60;46.90;;;;;;5114706;28;20038;-53
2021/01/25 08:02:56;;;;;;;39.03;30.63;;;21.50;47.10;;;;;;5114561;28;20090;-57
2021/01/25 08:05:24;;;;;;;40.70;31.35;;;21.50;47.10;;;;;;5114577;28;20035;-57
2021/01/25 08:07:51;;;;;;;40.22;29.98;;;21.50;47.10;;;;;;5114243;28;20469;-58
2021/01/25 08:10:18;;;;;;;34.08;25.15;;;21.50;47.10;;;;;;5114581;28;20373;-56
2021/01/25 08:12:46;;;;;;;20.05;14.77;;;21.50;47.20;;;;;;5114296;28;20039;-56
2021/01/25 08:15:34;;;;;;;20.83;12.48;;;21.60;47.30;;;;;;5114046;28;20098;-58
2021/01/25 08:18:05;;;;;;;209.05;188.02;;;21.60;47.30;;;;;;5113950;28;20366;-57
2021/01/25 08:20:36;;;;;;;146.93;131.35;;;21.60;47.60;;;;;;5114620;28;20038;-53
2021/01/25 08:23:11;;;;;;;;;;;21.60;47.70;;;;;;5114812;28;20035;-57
2021/01/25 08:25:38;;;;;;;35.03;30.30;;;21.60;47.50;;;;;;5114606;28;19912;-56
2021/01/25 08:28:15;;;;;;;34.42;29.75;;;21.70;47.40;;;;;;5114314;28;20579;-56
2021/01/25 08:30:44;;;;;;;25.17;21.90;;;21.70;47.50;;;;;;5096153;28;20369;-56
2021/01/25 08:33:15;;;;;;;21.42;18.60;;;21.80;47.50;;;;;;5114439;28;20125;-56
2021/01/25 08:35:52;;;;;;;;;;;21.70;47.40;;;;;;5114673;28;20091;-56
2021/01/25 08:38:31;;;;;;;24.08;19.13;;;21.80;47.40;;;;;;5111631;28;19916;-52
2021/01/25 08:41:00;;;;;;;31.45;26.15;;;21.80;47.40;;;;;;5102628;28;20126;-53
2021/01/25 08:43:29;;;;;;;46.88;38.72;;;21.90;47.50;;;;;;5093425;28;20028;-54
2021/01/25 08:46:13;;;;;;;87.90;78.55;;;21.80;47.60;;;;;;5075332;28;20848;-54
2021/01/25 08:48:40;;;;;;;56.72;48.17;;;21.80;47.60;;;;;;5115340;27;20028;-54
2021/01/25 08:51:15;;;;;;;48.00;41.28;;;21.90;47.60;;;;;;5122849;27;20023;-54
2021/01/25 08:53:44;;;;;;;37.92;33.22;;;21.90;47.70;;;;;;5119646;27;20023;-51
2021/01/25 08:56:19;;;;;;;42.47;35.65;;;21.90;47.70;;;;;;5126468;27;20062;-56
2021/01/25 08:58:46;;;;;;;36.45;28.92;;;22.00;47.80;;;;;;5118923;27;20027;-56
2021/01/25 09:01:20;;;;;;;31.95;26.42;;;22.00;47.70;;;;;;5124231;27;20072;-57
2021/01/25 09:03:46;;;;;;;24.60;16.88;;;22.00;47.90;;;;;;5116442;27;20019;-56
2021/01/25 09:06:12;;;;;;;13.88;9.63;;;22.10;47.60;;;;;;5113610;28;20125;-57
2021/01/25 09:08:39;;;;;;;16.25;7.63;;;22.10;47.40;;;;;;5113499;28;20055;-56
2021/01/25 09:11:06;;;;;;;12.70;9.70;;;22.10;47.20;;;;;;5113659;28;20062;-56
2021/01/25 09:13:33;;;;;;;17.25;11.55;;;22.10;47.40;;;;;;5113378;28;20027;-53
2021/01/25 09:15:59;;;;;;;15.55;11.48;;;22.10;47.50;;;;;;5127404;27;20102;-54
2021/01/25 09:18:25;;;;;;;18.05;10.63;;;22.10;47.60;;;;;;5126521;27;20031;-54
2021/01/25 09:20:51;;;;;;;11.90;6.93;;;22.00;47.70;;;;;;5113513;28;20107;-57
2021/01/25 09:23:18;;;;;;;13.52;7.50;;;22.00;47.70;;;;;;5113497;28;20024;-57
2021/01/25 09:25:45;;;;;;;14.70;5.68;;;22.10;47.70;;;;;;5113452;28;20454;-56
2021/01/25 09:28:12;;;;;;;14.27;6.88;;;22.10;47.80;;;;;;5113584;28;20038;-53
2021/01/25 09:30:39;;;;;;;10.98;3.90;;;22.10;47.80;;;;;;5113571;28;20024;-51
2021/01/25 09:33:05;;;;;;;9.90;4.15;;;22.10;48.00;;;;;;5113378;28;20028;-51
2021/01/25 09:35:31;;;;;;;12.13;3.53;;;22.10;48.10;;;;;;5113221;28;20050;-52
2021/01/25 09:37:57;;;;;;;16.65;6.13;;;22.20;48.30;;;;;;5113114;28;20023;-53
2021/01/25 09:40:23;;;;;;;25.63;15.60;;;22.20;48.20;;;;;;5111251;28;20531;-50
2021/01/25 09:42:49;;;;;;;11.27;6.25;;;22.20;48.20;;;;;;5111979;28;20028;-53
2021/01/25 09:45:18;;;;;;;8.35;4.05;;;22.30;48.10;;;;;;5095212;28;20111;-53
2021/01/25 09:47:44;;;;;;;9.23;3.20;;;22.40;48.10;;;;;;5094416;28;20024;-52
2021/01/25 09:50:13;;;;;;;10.57;2.78;;;22.40;47.80;;;;;;5112966;28;20077;-55
2021/01/25 09:52:40;;;;;;;4.60;2.05;;;22.50;47.80;;;;;;5113185;28;20024;-53
2021/01/25 09:55:08;;;;;;;8.13;2.22;;;22.60;47.60;;;;;;5116582;28;20058;-53
2021/01/25 09:57:34;;;;;;;6.53;2.20;;;22.60;47.40;;;;;;5117085;28;20031;-52
2021/01/25 10:00:00;;;;;;;6.97;2.40;;;22.70;47.40;;;;;;5093324;28;20032;-53
2021/01/25 10:02:26;;;;;;;7.32;1.80;;;22.70;47.30;;;;;;5105365;28;20063;-56
2021/01/25 10:04:51;;;;;;;4.32;1.70;;;22.80;47.20;;;;;;5096759;28;20082;-54
2021/01/25 10:07:17;;;;;;;8.20;1.52;;;22.90;47.00;;;;;;5096712;28;20016;-55
2021/01/25 10:09:43;;;;;;;4.47;1.52;;;22.90;46.90;;;;;;5078448;28;20478;-56
2021/01/25 10:12:09;;;;;;;5.55;1.20;;;23.00;46.80;;;;;;5096971;28;20063;-56
2021/01/25 10:14:35;;;;;;;8.10;1.85;;;23.00;46.50;;;;;;5110820;27;20042;-56
2021/01/25 10:17:01;;;;;;;7.63;2.20;;;23.10;46.40;;;;;;5110559;27;20078;-52
2021/01/25 10:19:27;;;;;;;6.80;2.40;;;23.20;46.40;;;;;;5116799;28;20426;-56
2021/01/25 10:21:53;;;;;;;5.30;1.70;;;23.20;46.60;;;;;;5123107;27;20106;-56
2021/01/25 10:24:19;;;;;;;5.07;1.30;;;23.30;46.50;;;;;;5126154;27;20032;-56
2021/01/25 10:26:45;;;;;;;4.30;1.85;;;23.40;46.00;;;;;;5122889;27;20016;-55
2021/01/25 10:29:11;;;;;;;9.07;1.73;;;23.40;45.70;;;;;;5116849;27;20037;-55
2021/01/25 10:31:37;;;;;;;6.63;1.42;;;23.30;45.80;;;;;;5116321;28;20032;-56
2021/01/25 10:34:03;;;;;;;6.97;1.58;;;23.20;46.30;;;;;;5116500;28;20365;-53
2021/01/25 10:36:29;;;;;;;4.70;1.30;;;23.20;46.80;;;;;;5116178;28;20109;-52
2021/01/25 10:38:56;;;;;;;6.20;1.45;;;23.30;46.00;;;;;;5116224;28;20085;-54
2021/01/25 10:41:22;;;;;;;4.88;1.23;;;23.30;46.10;;;;;;5116119;28;20031;-53
2021/01/25 10:43:48;;;;;;;7.05;1.75;;;23.20;46.50;;;;;;5116336;28;20039;-52
2021/01/25 10:46:15;;;;;;;3.75;1.75;;;23.00;47.80;;;;;;5115960;28;20027;-52
2021/01/25 10:48:41;;;;;;;5.93;1.45;;;22.70;49.80;;;;;;5115491;28;20145;-55
2021/01/25 10:51:09;;;;;;;4.13;1.05;;;22.60;49.40;;;;;;5116210;28;20141;-55
2021/01/25 10:53:35;;;;;;;5.72;1.35;;;22.70;49.20;;;;;;5116227;28;20385;-54
2021/01/25 10:56:01;;;;;;;7.47;1.80;;;22.70;48.90;;;;;;5116073;28;20372;-55
2021/01/25 10:58:27;;;;;;;5.00;1.90;;;22.80;48.70;;;;;;5115975;28;20107;-54
2021/01/25 11:00:54;;;;;;;2.15;0.85;;;22.90;48.70;;;;;;5115975;28;20036;-54
2021/01/25 11:03:20;;;;;;;3.67;1.60;;;23.00;48.60;;;;;;5115676;28;20039;-53
2021/01/25 11:05:46;;;;;;;2.95;1.00;;;23.10;48.60;;;;;;5115503;28;20016;-58
2021/01/25 11:08:12;;;;;;;5.85;1.40;;;23.20;48.60;;;;;;5115450;28;20099;-58
2021/01/25 11:10:38;;;;;;;4.00;0.90;;;23.30;48.50;;;;;;5115619;28;20027;-58
2021/01/25 11:13:04;;;;;;;1.85;1.00;;;23.40;48.50;;;;;;5115348;28;20032;-62
2021/01/25 11:15:30;;;;;;;2.50;1.00;;;23.40;48.50;;;;;;5115492;28;20018;-60
2021/01/25 11:17:58;;;;;;;3.88;1.35;;;23.40;48.50;;;;;;5115195;28;20035;-59
2021/01/25 11:20:23;;;;;;;3.85;1.20;;;23.50;48.50;;;;;;5115069;28;20074;-61
2021/01/25 11:22:49;;;;;;;6.22;1.23;;;23.50;48.50;;;;;;5115088;28;20036;-62
2021/01/25 11:25:16;;;;;;;5.00;1.50;;;23.60;48.50;;;;;;5114770;28;20431;-60
2021/01/25 11:27:42;;;;;;;5.18;1.17;;;23.60;48.40;;;;;;5115095;28;20024;-60
2021/01/25 11:30:09;;;;;;;5.85;2.05;;;23.60;48.50;;;;;;5115037;28;20023;-58
2021/01/25 11:32:35;;;;;;;6.13;3.58;;;23.60;48.40;;;;;;5114598;28;20032;-60
2021/01/25 11:35:01;;;;;;;8.60;4.55;;;23.70;48.50;;;;;;5114392;28;20055;-60
2021/01/25 11:37:28;;;;;;;6.15;3.10;;;23.70;48.40;;;;;;5115001;28;20132;-66
2021/01/25 11:39:54;;;;;;;5.95;3.22;;;23.70;48.40;;;;;;5114562;28;20040;-63
2021/01/25 11:42:21;;;;;;;7.63;2.72;;;23.70;48.40;;;;;;5115062;28;20089;-64
2021/01/25 11:44:47;;;;;;;4.82;2.67;;;23.70;48.30;;;;;;5114471;28;20032;-63
2021/01/25 11:47:13;;;;;;;3.88;1.98;;;23.80;48.40;;;;;;5114247;28;20109;-62
2021/01/25 11:49:39;;;;;;;3.13;1.67;;;23.80;48.20;;;;;;5114577;28;20358;-60
2021/01/25 11:52:05;;;;;;;3.33;1.65;;;23.80;48.20;;;;;;5114673;28;20074;-62
2021/01/25 11:54:33;;;;;;;2.35;1.40;;;23.90;48.20;;;;;;5114407;28;20110;-60
2021/01/25 11:56:59;;;;;;;2.50;1.48;;;23.90;48.10;;;;;;5114427;28;20023;-60
2021/01/25 11:59:25;;;;;;;3.03;1.48;;;23.90;48.00;;;;;;5114857;28;20027;-60
2021/01/25 12:01:51;;;;;;;2.47;1.38;;;23.90;47.90;;;;;;5124619;27;20106;-61
2021/01/25 12:04:17;;;;;;;2.83;1.30;;;24.00;48.00;;;;;;5129950;27;20546;-62
2021/01/25 12:06:43;;;;;;;3.92;1.73;;;24.00;47.90;;;;;;5134188;27;20027;-63
2021/01/25 12:09:09;;;;;;;4.35;1.15;;;24.00;47.90;;;;;;5134237;27;20031;-67
2021/01/25 12:11:35;;;;;;;2.97;1.30;;;24.00;47.90;;;;;;5129708;27;20128;-61
2021/01/25 12:14:01;;;;;;;2.65;1.38;;;24.00;47.90;;;;;;5107272;28;20046;-65
2021/01/25 12:16:27;;;;;;;5.55;1.60;;;24.10;47.90;;;;;;5112735;28;20031;-57
2021/01/25 12:18:53;;;;;;;4.15;1.30;;;24.20;48.10;;;;;;5117694;27;20505;-57
2021/01/25 12:21:19;;;;;;;5.40;1.35;;;24.30;48.00;;;;;;5134049;27;20053;-56
2021/01/25 12:23:45;;;;;;;3.30;1.45;;;24.50;48.00;;;;;;5133572;27;20035;-56
2021/01/25 12:26:11;;;;;;;13.52;10.98;;;24.70;47.80;;;;;;5106107;27;20035;-57
2021/01/25 12:28:37;;;;;;;26.73;22.58;;;25.00;47.80;;;;;;5093646;28;20103;-57
2021/01/25 12:31:06;;;;;;;17.65;15.85;;;25.30;46.40;;;;;;5104114;28;20027;-57
2021/01/25 12:33:32;;;;;;;11.80;10.05;;;25.50;45.60;;;;;;5113700;28;20144;-60
2021/01/25 12:35:59;;;;;;;16.42;12.60;;;25.70;45.30;;;;;;5113293;28;20165;-55
2021/01/25 12:38:25;;;;;;;15.25;13.55;;;25.90;45.00;;;;;;5113464;28;20163;-56
2021/01/25 12:40:51;;;;;;;17.80;15.90;;;25.90;44.70;;;;;;5113649;28;20106;-57
2021/01/25 12:43:17;;;;;;;17.13;15.18;;;26.00;44.70;;;;;;5113552;28;20158;-58
2021/01/25 12:45:43;;;;;;;15.20;12.77;;;26.10;44.70;;;;;;5113184;28;20378;-58